Saint Petersburg, FL (33706)

4:13 PM EDT on August 29, 2016 (GMT -0400)
Saint Pete Beach | | Change Station

Elev 9 ft 27.74 °N, 82.75 °W | Updated 3 minutes ago

Overcast
Overcast
87.4 °F
Feels Like 100 °F
N
10.7
Wind Variable Wind from NW
Gusts 21.3 mph

Today
High -- | Low -- °F
--% Chance of Precip.
Yesterday
High -- | Low -- °F
Precip. -- in
Pressure 29.89 in
Visibility 0.8 miles
Clouds Scattered Clouds 1900 ft
Mostly Cloudy 2800 ft
Mostly Cloudy 3500 ft
Heat Index 100 °F
Dew Point 78 °F
Humidity 73%
Rainfall 0.00 in
Snow Depth Not available.
7:08 AM 7:54 PM
Waning Crescent, 7% visible
SPECI KSPG 292006Z 17022G33KT 3/4SM +TSRA BR SCT019 BKN028 BKN035 25/25 A2989 RMK AO2 PK WND 17033/2004 WSHFT 1947 LTG DSNT ALQDS RAB01 TSB1959 P0021 T02500250
Pressure 29.89 in
Visibility 0.8 miles
Clouds Scattered Clouds 1900 ft
Mostly Cloudy 2800 ft
Mostly Cloudy 3500 ft
Heat Index 100 °F
Dew Point 78 °F
Humidity 73%
Rainfall 0.00 in
Snow Depth Not available.
7:08 AM 7:54 PM
Waning Crescent, 7% visible
SPECI KSPG 292006Z 17022G33KT 3/4SM +TSRA BR SCT019 BKN028 BKN035 25/25 A2989 RMK AO2 PK WND 17033/2004 WSHFT 1947 LTG DSNT ALQDS RAB01 TSB1959 P0021 T02500250
Tropical Depression Nine was centered about 170 miles west-southwest of Key West, Florida, as of late Monday morning. The depression may struggle a bit in the southern Gulf of Mexico before finally making a Gulf Coast landfall later this week with soaking rain and gusty winds.

This latest system was designated a tropical depression Sunday after a Hurricane Hunter reconnaissance mission finally found a sufficiently organized low-pressure center with collocated shower and thunderstorm activity.

10-Day Weather Forecast

Almanac

Astronomy

Aug. 29, 2016 Rise Set
Actual Time
Civil Twilight
Nautical Twilight
Astronomical Twilight
Moon
Length of Visible Light
Length of Day
Tomorrow will be .
, % of the Moon is Illuminated

Today's Extremes

State Highs State Lows

Community

WunderPhotos

Upload Photos

1,935,647 photos uploaded!

WunderBlog® & News

Nearby

Air Quality

  Air Quality AQ Index Pollutant
Not available.

Snow Depth

Station Depth Elevation

Earthquake Activity

City Distance Mag. Time & Date
Minimum magnitude displayed is 2.5.

Coastal Water Temperatures

Place Temperature

Stations

Nearby Weather Stations

Station Location Temp. Windchill Dew Point Humidity Wind Precip. Elev Updated Type
                   

Watches & Warnings

There are currently no watches in effect.